sensor_id;sensor_type;location;lat;lon;timestamp;pressure;altitude;pressure_sealevel;temperature
56286;BMP180;42191;47.562;9.686;2022-08-05T00:01:18;96604.00;;;28.50
56286;BMP180;42191;47.562;9.686;2022-08-05T00:03:46;96606.00;;;28.50
56286;BMP180;42191;47.562;9.686;2022-08-05T00:06:12;96614.00;;;28.60
56286;BMP180;42191;47.562;9.686;2022-08-05T00:08:39;96614.00;;;28.50
56286;BMP180;42191;47.562;9.686;2022-08-05T00:11:08;96608.00;;;28.50
56286;BMP180;42191;47.562;9.686;2022-08-05T00:13:35;96608.00;;;28.50
56286;BMP180;42191;47.562;9.686;2022-08-05T00:16:02;96611.00;;;28.50
56286;BMP180;42191;47.562;9.686;2022-08-05T00:18:29;96606.00;;;28.50
56286;BMP180;42191;47.562;9.686;2022-08-05T00:20:56;96600.00;;;28.50
56286;BMP180;42191;47.562;9.686;2022-08-05T00:23:22;96608.00;;;28.50
56286;BMP180;42191;47.562;9.686;2022-08-05T00:25:49;96598.00;;;28.50
56286;BMP180;42191;47.562;9.686;2022-08-05T00:28:16;96606.00;;;28.50
56286;BMP180;42191;47.562;9.686;2022-08-05T00:30:42;96601.00;;;28.50
56286;BMP180;42191;47.562;9.686;2022-08-05T00:33:09;96607.00;;;28.50
56286;BMP180;42191;47.562;9.686;2022-08-05T00:35:35;96612.00;;;28.50
56286;BMP180;42191;47.562;9.686;2022-08-05T00:38:01;96609.00;;;28.40
56286;BMP180;42191;47.562;9.686;2022-08-05T00:40:28;96606.00;;;28.40
56286;BMP180;42191;47.562;9.686;2022-08-05T00:42:57;96614.00;;;28.40
56286;BMP180;42191;47.562;9.686;2022-08-05T00:45:24;96614.00;;;28.40
56286;BMP180;42191;47.562;9.686;2022-08-05T00:47:50;96611.00;;;28.40
56286;BMP180;42191;47.562;9.686;2022-08-05T00:50:16;96615.00;;;28.40
56286;BMP180;42191;47.562;9.686;2022-08-05T00:52:42;96617.00;;;28.40
56286;BMP180;42191;47.562;9.686;2022-08-05T00:55:08;96621.00;;;28.50
56286;BMP180;42191;47.562;9.686;2022-08-05T00:57:34;96619.00;;;28.50
56286;BMP180;42191;47.562;9.686;2022-08-05T01:00:02;96624.00;;;28.50
56286;BMP180;42191;47.562;9.686;2022-08-05T01:02:28;96622.00;;;28.50
56286;BMP180;42191;47.562;9.686;2022-08-05T01:04:54;96634.00;;;28.60
56286;BMP180;42191;47.562;9.686;2022-08-05T01:07:20;96624.00;;;28.60
56286;BMP180;42191;47.562;9.686;2022-08-05T01:09:47;96634.00;;;28.60
56286;BMP180;42191;47.562;9.686;2022-08-05T01:12:16;96628.00;;;28.70
56286;BMP180;42191;47.562;9.686;2022-08-05T01:14:54;96644.00;;;28.70
56286;BMP180;42191;47.562;9.686;2022-08-05T01:17:50;96648.00;;;28.70
56286;BMP180;42191;47.562;9.686;2022-08-05T01:20:48;96644.00;;;28.70
56286;BMP180;42191;47.562;9.686;2022-08-05T01:29:37;96665.00;;;28.80
56286;BMP180;42191;47.562;9.686;2022-08-05T01:32:08;96677.00;;;28.80
56286;BMP180;42191;47.562;9.686;2022-08-05T01:37:42;96677.00;;;28.80
56286;BMP180;42191;47.562;9.686;2022-08-05T01:40:10;96677.00;;;28.80
56286;BMP180;42191;47.562;9.686;2022-08-05T01:42:39;96685.00;;;28.80
56286;BMP180;42191;47.562;9.686;2022-08-05T01:45:07;96688.00;;;28.80
56286;BMP180;42191;47.562;9.686;2022-08-05T01:47:34;96687.00;;;28.80
56286;BMP180;42191;47.562;9.686;2022-08-05T01:50:05;96684.00;;;28.80
56286;BMP180;42191;47.562;9.686;2022-08-05T01:52:33;96686.00;;;28.80
56286;BMP180;42191;47.562;9.686;2022-08-05T01:55:04;96676.00;;;28.80
56286;BMP180;42191;47.562;9.686;2022-08-05T01:57:34;96688.00;;;28.80
56286;BMP180;42191;47.562;9.686;2022-08-05T02:00:03;96695.00;;;28.70
56286;BMP180;42191;47.562;9.686;2022-08-05T02:02:31;96699.00;;;28.70
56286;BMP180;42191;47.562;9.686;2022-08-05T02:05:02;96701.00;;;28.70
56286;BMP180;42191;47.562;9.686;2022-08-05T02:07:29;96697.00;;;28.70
56286;BMP180;42191;47.562;9.686;2022-08-05T02:09:56;96702.00;;;28.70
56286;BMP180;42191;47.562;9.686;2022-08-05T02:12:55;96713.00;;;28.70
56286;BMP180;42191;47.562;9.686;2022-08-05T02:15:34;96723.00;;;28.60
56286;BMP180;42191;47.562;9.686;2022-08-05T02:18:13;96725.00;;;28.60
56286;BMP180;42191;47.562;9.686;2022-08-05T02:20:50;96717.00;;;28.60
56286;BMP180;42191;47.562;9.686;2022-08-05T02:23:21;96741.00;;;28.60
56286;BMP180;42191;47.562;9.686;2022-08-05T02:25:50;96744.00;;;28.60
56286;BMP180;42191;47.562;9.686;2022-08-05T02:28:24;96754.00;;;28.60
56286;BMP180;42191;47.562;9.686;2022-08-05T02:30:59;96736.00;;;28.60
56286;BMP180;42191;47.562;9.686;2022-08-05T02:33:26;96747.00;;;28.60
56286;BMP180;42191;47.562;9.686;2022-08-05T02:35:56;96734.00;;;28.60
56286;BMP180;42191;47.562;9.686;2022-08-05T02:38:23;96740.00;;;28.60
56286;BMP180;42191;47.562;9.686;2022-08-05T02:40:51;96731.00;;;28.60
56286;BMP180;42191;47.562;9.686;2022-08-05T02:43:19;96736.00;;;28.60
56286;BMP180;42191;47.562;9.686;2022-08-05T02:45:47;96760.00;;;28.60
56286;BMP180;42191;47.562;9.686;2022-08-05T02:48:15;96768.00;;;28.60
56286;BMP180;42191;47.562;9.686;2022-08-05T02:50:43;96773.00;;;28.60
56286;BMP180;42191;47.562;9.686;2022-08-05T02:53:14;96772.00;;;28.60
56286;BMP180;42191;47.562;9.686;2022-08-05T02:55:40;96769.00;;;28.60
56286;BMP180;42191;47.562;9.686;2022-08-05T02:58:07;96765.00;;;28.60
56286;BMP180;42191;47.562;9.686;2022-08-05T03:00:34;96767.00;;;28.60
56286;BMP180;42191;47.562;9.686;2022-08-05T03:03:01;96761.00;;;28.50
56286;BMP180;42191;47.562;9.686;2022-08-05T03:05:28;96755.00;;;28.50
56286;BMP180;42191;47.562;9.686;2022-08-05T03:07:55;96765.00;;;28.50
56286;BMP180;42191;47.562;9.686;2022-08-05T03:10:21;96767.00;;;28.50
56286;BMP180;42191;47.562;9.686;2022-08-05T03:12:49;96766.00;;;28.50
56286;BMP180;42191;47.562;9.686;2022-08-05T03:15:15;96777.00;;;28.50
56286;BMP180;42191;47.562;9.686;2022-08-05T03:17:41;96767.00;;;28.40
56286;BMP180;42191;47.562;9.686;2022-08-05T03:20:08;96764.00;;;28.40
56286;BMP180;42191;47.562;9.686;2022-08-05T03:22:34;96754.00;;;28.40
56286;BMP180;42191;47.562;9.686;2022-08-05T03:25:00;96755.00;;;28.30
56286;BMP180;42191;47.562;9.686;2022-08-05T03:27:27;96756.00;;;28.30
56286;BMP180;42191;47.562;9.686;2022-08-05T03:29:53;96741.00;;;28.30
56286;BMP180;42191;47.562;9.686;2022-08-05T03:32:20;96729.00;;;28.30
56286;BMP180;42191;47.562;9.686;2022-08-05T03:34:46;96730.00;;;28.30
56286;BMP180;42191;47.562;9.686;2022-08-05T03:37:13;96726.00;;;28.30
56286;BMP180;42191;47.562;9.686;2022-08-05T03:39:54;96724.00;;;28.30
56286;BMP180;42191;47.562;9.686;2022-08-05T03:42:21;96721.00;;;28.30
56286;BMP180;42191;47.562;9.686;2022-08-05T03:44:47;96721.00;;;28.20
56286;BMP180;42191;47.562;9.686;2022-08-05T03:47:14;96703.00;;;28.20
56286;BMP180;42191;47.562;9.686;2022-08-05T03:49:40;96694.00;;;28.20
56286;BMP180;42191;47.562;9.686;2022-08-05T03:52:09;96700.00;;;28.20
56286;BMP180;42191;47.562;9.686;2022-08-05T03:54:44;96712.00;;;28.10
56286;BMP180;42191;47.562;9.686;2022-08-05T03:57:13;96719.00;;;28.10
56286;BMP180;42191;47.562;9.686;2022-08-05T03:59:48;96706.00;;;28.10
56286;BMP180;42191;47.562;9.686;2022-08-05T04:02:16;96701.00;;;28.10
56286;BMP180;42191;47.562;9.686;2022-08-05T04:04:43;96698.00;;;28.10
56286;BMP180;42191;47.562;9.686;2022-08-05T04:07:10;96686.00;;;28.10
56286;BMP180;42191;47.562;9.686;2022-08-05T04:09:36;96684.00;;;28.10
56286;BMP180;42191;47.562;9.686;2022-08-05T04:12:03;96694.00;;;28.10
56286;BMP180;42191;47.562;9.686;2022-08-05T04:14:30;96688.00;;;28.10
56286;BMP180;42191;47.562;9.686;2022-08-05T04:16:57;96688.00;;;28.10
56286;BMP180;42191;47.562;9.686;2022-08-05T04:19:24;96676.00;;;28.10
56286;BMP180;42191;47.562;9.686;2022-08-05T04:21:50;96676.00;;;28.10
56286;BMP180;42191;47.562;9.686;2022-08-05T04:24:16;96665.00;;;28.10
56286;BMP180;42191;47.562;9.686;2022-08-05T04:26:42;96687.00;;;28.10
56286;BMP180;42191;47.562;9.686;2022-08-05T04:29:08;96695.00;;;28.10
56286;BMP180;42191;47.562;9.686;2022-08-05T04:31:35;96709.00;;;28.10
56286;BMP180;42191;47.562;9.686;2022-08-05T04:34:01;96715.00;;;28.10
56286;BMP180;42191;47.562;9.686;2022-08-05T04:36:27;96701.00;;;28.10
56286;BMP180;42191;47.562;9.686;2022-08-05T04:38:53;96696.00;;;28.10
56286;BMP180;42191;47.562;9.686;2022-08-05T04:41:20;96705.00;;;28.10
56286;BMP180;42191;47.562;9.686;2022-08-05T04:43:46;96699.00;;;28.10
56286;BMP180;42191;47.562;9.686;2022-08-05T04:46:12;96704.00;;;28.10
56286;BMP180;42191;47.562;9.686;2022-08-05T04:48:38;96701.00;;;28.10
56286;BMP180;42191;47.562;9.686;2022-08-05T04:51:04;96691.00;;;28.10
56286;BMP180;42191;47.562;9.686;2022-08-05T04:53:30;96690.00;;;28.10
56286;BMP180;42191;47.562;9.686;2022-08-05T04:55:56;96697.00;;;28.10
56286;BMP180;42191;47.562;9.686;2022-08-05T04:58:23;96708.00;;;28.10
56286;BMP180;42191;47.562;9.686;2022-08-05T05:00:49;96694.00;;;28.10
56286;BMP180;42191;47.562;9.686;2022-08-05T05:03:15;96693.00;;;28.10
56286;BMP180;42191;47.562;9.686;2022-08-05T05:05:41;96699.00;;;28.10
56286;BMP180;42191;47.562;9.686;2022-08-05T05:08:09;96703.00;;;28.10
56286;BMP180;42191;47.562;9.686;2022-08-05T05:10:43;96701.00;;;28.10
56286;BMP180;42191;47.562;9.686;2022-08-05T05:13:11;96692.00;;;28.20
56286;BMP180;42191;47.562;9.686;2022-08-05T05:15:38;96690.00;;;28.20
56286;BMP180;42191;47.562;9.686;2022-08-05T05:18:05;96691.00;;;28.20
56286;BMP180;42191;47.562;9.686;2022-08-05T05:20:31;96702.00;;;28.20
56286;BMP180;42191;47.562;9.686;2022-08-05T05:22:58;96696.00;;;28.20
56286;BMP180;42191;47.562;9.686;2022-08-05T05:25:25;96706.00;;;28.20
56286;BMP180;42191;47.562;9.686;2022-08-05T05:27:52;96707.00;;;28.20
56286;BMP180;42191;47.562;9.686;2022-08-05T05:30:18;96703.00;;;28.20
56286;BMP180;42191;47.562;9.686;2022-08-05T05:32:45;96700.00;;;28.30
56286;BMP180;42191;47.562;9.686;2022-08-05T05:35:11;96706.00;;;28.30
56286;BMP180;42191;47.562;9.686;2022-08-05T05:40:15;96708.00;;;28.40
56286;BMP180;42191;47.562;9.686;2022-08-05T05:42:41;96717.00;;;28.40
56286;BMP180;42191;47.562;9.686;2022-08-05T05:45:08;96716.00;;;28.40
56286;BMP180;42191;47.562;9.686;2022-08-05T05:47:34;96719.00;;;28.40
56286;BMP180;42191;47.562;9.686;2022-08-05T05:50:01;96725.00;;;28.50
56286;BMP180;42191;47.562;9.686;2022-08-05T05:52:27;96727.00;;;28.50
56286;BMP180;42191;47.562;9.686;2022-08-05T05:54:53;96740.00;;;28.50
56286;BMP180;42191;47.562;9.686;2022-08-05T05:57:19;96746.00;;;28.50
56286;BMP180;42191;47.562;9.686;2022-08-05T05:59:46;96731.00;;;28.50
56286;BMP180;42191;47.562;9.686;2022-08-05T06:02:12;96753.00;;;28.50
56286;BMP180;42191;47.562;9.686;2022-08-05T06:04:38;96756.00;;;28.50
56286;BMP180;42191;47.562;9.686;2022-08-05T06:07:04;96762.00;;;28.60
56286;BMP180;42191;47.562;9.686;2022-08-05T06:09:31;96760.00;;;28.60
56286;BMP180;42191;47.562;9.686;2022-08-05T06:11:57;96756.00;;;28.60
56286;BMP180;42191;47.562;9.686;2022-08-05T06:14:23;96758.00;;;28.70
56286;BMP180;42191;47.562;9.686;2022-08-05T06:16:49;96761.00;;;28.70
56286;BMP180;42191;47.562;9.686;2022-08-05T06:19:15;96774.00;;;28.80
56286;BMP180;42191;47.562;9.686;2022-08-05T06:21:41;96770.00;;;28.90
56286;BMP180;42191;47.562;9.686;2022-08-05T06:24:07;96768.00;;;29.00
56286;BMP180;42191;47.562;9.686;2022-08-05T06:26:34;96772.00;;;29.10
56286;BMP180;42191;47.562;9.686;2022-08-05T06:29:00;96781.00;;;29.20
56286;BMP180;42191;47.562;9.686;2022-08-05T06:31:26;96787.00;;;29.30
56286;BMP180;42191;47.562;9.686;2022-08-05T06:33:52;96783.00;;;29.30
56286;BMP180;42191;47.562;9.686;2022-08-05T06:36:18;96786.00;;;29.40
56286;BMP180;42191;47.562;9.686;2022-08-05T06:38:44;96792.00;;;29.50
56286;BMP180;42191;47.562;9.686;2022-08-05T06:41:11;96799.00;;;29.60
56286;BMP180;42191;47.562;9.686;2022-08-05T06:43:37;96817.00;;;29.70
56286;BMP180;42191;47.562;9.686;2022-08-05T06:46:03;96833.00;;;29.70
56286;BMP180;42191;47.562;9.686;2022-08-05T06:48:29;96846.00;;;29.80
56286;BMP180;42191;47.562;9.686;2022-08-05T06:50:55;96861.00;;;29.70
56286;BMP180;42191;47.562;9.686;2022-08-05T06:53:22;96873.00;;;29.70
56286;BMP180;42191;47.562;9.686;2022-08-05T06:55:48;96888.00;;;29.70
56286;BMP180;42191;47.562;9.686;2022-08-05T06:58:14;96882.00;;;29.60
56286;BMP180;42191;47.562;9.686;2022-08-05T07:00:40;96886.00;;;29.60
56286;BMP180;42191;47.562;9.686;2022-08-05T07:03:06;96888.00;;;29.60
56286;BMP180;42191;47.562;9.686;2022-08-05T07:05:32;96878.00;;;29.50
56286;BMP180;42191;47.562;9.686;2022-08-05T07:07:58;96886.00;;;29.50
56286;BMP180;42191;47.562;9.686;2022-08-05T07:10:24;96887.00;;;29.50
56286;BMP180;42191;47.562;9.686;2022-08-05T07:12:50;96885.00;;;29.50
56286;BMP180;42191;47.562;9.686;2022-08-05T07:15:35;96887.00;;;29.50
56286;BMP180;42191;47.562;9.686;2022-08-05T07:18:20;96894.00;;;29.50
56286;BMP180;42191;47.562;9.686;2022-08-05T07:20:46;96902.00;;;29.50
56286;BMP180;42191;47.562;9.686;2022-08-05T07:23:12;96904.00;;;29.50
56286;BMP180;42191;47.562;9.686;2022-08-05T07:25:38;96898.00;;;29.60
56286;BMP180;42191;47.562;9.686;2022-08-05T07:28:04;96909.00;;;29.60
56286;BMP180;42191;47.562;9.686;2022-08-05T07:30:31;96913.00;;;29.70
56286;BMP180;42191;47.562;9.686;2022-08-05T07:32:58;96899.00;;;29.80
56286;BMP180;42191;47.562;9.686;2022-08-05T07:35:24;96912.00;;;29.90
56286;BMP180;42191;47.562;9.686;2022-08-05T07:37:50;96909.00;;;30.00
56286;BMP180;42191;47.562;9.686;2022-08-05T07:40:17;96919.00;;;30.00
56286;BMP180;42191;47.562;9.686;2022-08-05T07:42:43;96912.00;;;30.10
56286;BMP180;42191;47.562;9.686;2022-08-05T07:45:09;96914.00;;;30.20
56286;BMP180;42191;47.562;9.686;2022-08-05T07:47:35;96913.00;;;30.20
56286;BMP180;42191;47.562;9.686;2022-08-05T07:50:01;96914.00;;;30.30
56286;BMP180;42191;47.562;9.686;2022-08-05T07:52:28;96913.00;;;30.40
56286;BMP180;42191;47.562;9.686;2022-08-05T07:54:54;96921.00;;;30.40
56286;BMP180;42191;47.562;9.686;2022-08-05T07:57:20;96916.00;;;30.40
56286;BMP180;42191;47.562;9.686;2022-08-05T07:59:46;96909.00;;;30.40
56286;BMP180;42191;47.562;9.686;2022-08-05T08:02:12;96905.00;;;30.40
56286;BMP180;42191;47.562;9.686;2022-08-05T08:04:38;96913.00;;;30.50
56286;BMP180;42191;47.562;9.686;2022-08-05T08:07:05;96907.00;;;30.50
56286;BMP180;42191;47.562;9.686;2022-08-05T08:09:31;96913.00;;;30.50
56286;BMP180;42191;47.562;9.686;2022-08-05T08:11:57;96907.00;;;30.60
56286;BMP180;42191;47.562;9.686;2022-08-05T08:14:23;96915.00;;;30.60
56286;BMP180;42191;47.562;9.686;2022-08-05T08:16:49;96936.00;;;30.60
56286;BMP180;42191;47.562;9.686;2022-08-05T08:19:15;96934.00;;;30.60
56286;BMP180;42191;47.562;9.686;2022-08-05T08:21:42;96935.00;;;30.60
56286;BMP180;42191;47.562;9.686;2022-08-05T08:24:08;96943.00;;;30.60
56286;BMP180;42191;47.562;9.686;2022-08-05T08:26:34;96945.00;;;30.70
56286;BMP180;42191;47.562;9.686;2022-08-05T08:29:00;96935.00;;;30.70
56286;BMP180;42191;47.562;9.686;2022-08-05T08:31:26;96942.00;;;30.80
56286;BMP180;42191;47.562;9.686;2022-08-05T08:33:52;96946.00;;;30.90
56286;BMP180;42191;47.562;9.686;2022-08-05T08:36:18;96935.00;;;31.00
56286;BMP180;42191;47.562;9.686;2022-08-05T08:38:44;96948.00;;;31.00
56286;BMP180;42191;47.562;9.686;2022-08-05T08:41:12;96943.00;;;31.10
56286;BMP180;42191;47.562;9.686;2022-08-05T08:43:40;96940.00;;;31.10
56286;BMP180;42191;47.562;9.686;2022-08-05T08:46:07;96947.00;;;31.20
56286;BMP180;42191;47.562;9.686;2022-08-05T08:48:34;96960.00;;;31.20
56286;BMP180;42191;47.562;9.686;2022-08-05T08:51:03;96962.00;;;31.30
56286;BMP180;42191;47.562;9.686;2022-08-05T08:53:35;96955.00;;;31.40
56286;BMP180;42191;47.562;9.686;2022-08-05T08:56:06;96956.00;;;31.50
56286;BMP180;42191;47.562;9.686;2022-08-05T08:58:32;96966.00;;;31.50
56286;BMP180;42191;47.562;9.686;2022-08-05T09:00:58;96973.00;;;31.60
56286;BMP180;42191;47.562;9.686;2022-08-05T09:03:25;96978.00;;;31.70
56286;BMP180;42191;47.562;9.686;2022-08-05T09:05:51;96974.00;;;31.80
56286;BMP180;42191;47.562;9.686;2022-08-05T09:08:18;96978.00;;;31.90
56286;BMP180;42191;47.562;9.686;2022-08-05T09:10:44;96971.00;;;32.00
56286;BMP180;42191;47.562;9.686;2022-08-05T09:13:13;96970.00;;;32.10
56286;BMP180;42191;47.562;9.686;2022-08-05T09:15:40;96979.00;;;32.20
56286;BMP180;42191;47.562;9.686;2022-08-05T09:18:08;96969.00;;;32.30
56286;BMP180;42191;47.562;9.686;2022-08-05T09:20:35;96971.00;;;32.30
56286;BMP180;42191;47.562;9.686;2022-08-05T09:25:28;96969.00;;;32.40
56286;BMP180;42191;47.562;9.686;2022-08-05T09:27:55;96971.00;;;32.50
56286;BMP180;42191;47.562;9.686;2022-08-05T09:30:21;96969.00;;;32.50
56286;BMP180;42191;47.562;9.686;2022-08-05T09:32:47;96978.00;;;32.60
56286;BMP180;42191;47.562;9.686;2022-08-05T09:35:15;96971.00;;;32.60
56286;BMP180;42191;47.562;9.686;2022-08-05T09:37:54;96962.00;;;32.70
56286;BMP180;42191;47.562;9.686;2022-08-05T09:40:32;96964.00;;;32.70
56286;BMP180;42191;47.562;9.686;2022-08-05T09:42:59;96969.00;;;32.80
56286;BMP180;42191;47.562;9.686;2022-08-05T09:45:37;96965.00;;;32.90
56286;BMP180;42191;47.562;9.686;2022-08-05T09:48:33;96960.00;;;33.10
56286;BMP180;42191;47.562;9.686;2022-08-05T09:51:07;96962.00;;;33.20
56286;BMP180;42191;47.562;9.686;2022-08-05T09:53:50;96958.00;;;33.40
56286;BMP180;42191;47.562;9.686;2022-08-05T09:56:24;96957.00;;;33.60
56286;BMP180;42191;47.562;9.686;2022-08-05T09:59:01;96959.00;;;33.70
56286;BMP180;42191;47.562;9.686;2022-08-05T10:01:28;96958.00;;;33.80
56286;BMP180;42191;47.562;9.686;2022-08-05T10:04:06;96950.00;;;33.90
56286;BMP180;42191;47.562;9.686;2022-08-05T10:06:33;96954.00;;;33.90
56286;BMP180;42191;47.562;9.686;2022-08-05T10:09:14;96952.00;;;34.00
56286;BMP180;42191;47.562;9.686;2022-08-05T10:11:41;96948.00;;;34.00
56286;BMP180;42191;47.562;9.686;2022-08-05T10:14:36;96945.00;;;34.00
56286;BMP180;42191;47.562;9.686;2022-08-05T10:17:13;96940.00;;;34.00
56286;BMP180;42191;47.562;9.686;2022-08-05T10:19:40;96928.00;;;34.00
56286;BMP180;42191;47.562;9.686;2022-08-05T10:22:07;96919.00;;;34.00
56286;BMP180;42191;47.562;9.686;2022-08-05T10:24:33;96913.00;;;34.10
56286;BMP180;42191;47.562;9.686;2022-08-05T10:27:00;96914.00;;;34.20
56286;BMP180;42191;47.562;9.686;2022-08-05T10:29:26;96922.00;;;34.20
56286;BMP180;42191;47.562;9.686;2022-08-05T10:31:55;96919.00;;;34.30
56286;BMP180;42191;47.562;9.686;2022-08-05T10:34:21;96924.00;;;34.30
56286;BMP180;42191;47.562;9.686;2022-08-05T10:36:47;96919.00;;;34.30
56286;BMP180;42191;47.562;9.686;2022-08-05T10:39:19;96902.00;;;34.40
56286;BMP180;42191;47.562;9.686;2022-08-05T10:42:00;96902.00;;;34.50
56286;BMP180;42191;47.562;9.686;2022-08-05T10:44:28;96897.00;;;34.60
56286;BMP180;42191;47.562;9.686;2022-08-05T10:46:56;96892.00;;;34.70
56286;BMP180;42191;47.562;9.686;2022-08-05T10:49:24;96888.00;;;34.90
56286;BMP180;42191;47.562;9.686;2022-08-05T10:51:55;96890.00;;;35.10
56286;BMP180;42191;47.562;9.686;2022-08-05T10:54:48;96898.00;;;35.20
56286;BMP180;42191;47.562;9.686;2022-08-05T10:57:27;96896.00;;;35.30
56286;BMP180;42191;47.562;9.686;2022-08-05T11:00:16;96892.00;;;35.30
56286;BMP180;42191;47.562;9.686;2022-08-05T11:03:07;96887.00;;;35.40
56286;BMP180;42191;47.562;9.686;2022-08-05T11:05:37;96882.00;;;35.50
56286;BMP180;42191;47.562;9.686;2022-08-05T11:08:06;96874.00;;;35.50
56286;BMP180;42191;47.562;9.686;2022-08-05T11:10:33;96874.00;;;35.60
56286;BMP180;42191;47.562;9.686;2022-08-05T11:13:03;96877.00;;;35.60
56286;BMP180;42191;47.562;9.686;2022-08-05T11:15:32;96873.00;;;35.70
56286;BMP180;42191;47.562;9.686;2022-08-05T11:18:29;96869.00;;;35.70
56286;BMP180;42191;47.562;9.686;2022-08-05T11:20:58;96871.00;;;35.70
56286;BMP180;42191;47.562;9.686;2022-08-05T11:23:40;96865.00;;;35.70
56286;BMP180;42191;47.562;9.686;2022-08-05T11:28:47;96863.00;;;35.70
56286;BMP180;42191;47.562;9.686;2022-08-05T11:33:53;96854.00;;;35.70
56286;BMP180;42191;47.562;9.686;2022-08-05T11:36:40;96854.00;;;35.70
56286;BMP180;42191;47.562;9.686;2022-08-05T11:39:10;96847.00;;;35.70
56286;BMP180;42191;47.562;9.686;2022-08-05T11:41:39;96855.00;;;35.70
56286;BMP180;42191;47.562;9.686;2022-08-05T11:44:13;96842.00;;;35.70
56286;BMP180;42191;47.562;9.686;2022-08-05T11:46:51;96846.00;;;35.80
56286;BMP180;42191;47.562;9.686;2022-08-05T11:49:21;96835.00;;;35.80
56286;BMP180;42191;47.562;9.686;2022-08-05T11:51:49;96835.00;;;35.80
56286;BMP180;42191;47.562;9.686;2022-08-05T11:54:30;96831.00;;;35.80
56286;BMP180;42191;47.562;9.686;2022-08-05T11:57:00;96830.00;;;35.80
56286;BMP180;42191;47.562;9.686;2022-08-05T11:59:28;96828.00;;;35.80
56286;BMP180;42191;47.562;9.686;2022-08-05T12:01:56;96825.00;;;35.70
56286;BMP180;42191;47.562;9.686;2022-08-05T12:04:24;96818.00;;;35.70
56286;BMP180;42191;47.562;9.686;2022-08-05T12:06:50;96819.00;;;35.80
56286;BMP180;42191;47.562;9.686;2022-08-05T12:09:23;96829.00;;;35.70
56286;BMP180;42191;47.562;9.686;2022-08-05T12:11:55;96819.00;;;35.70
56286;BMP180;42191;47.562;9.686;2022-08-05T12:14:22;96818.00;;;35.70
56286;BMP180;42191;47.562;9.686;2022-08-05T12:16:49;96825.00;;;35.80
56286;BMP180;42191;47.562;9.686;2022-08-05T12:19:16;96815.00;;;35.80
56286;BMP180;42191;47.562;9.686;2022-08-05T12:21:48;96822.00;;;35.80
56286;BMP180;42191;47.562;9.686;2022-08-05T12:24:19;96818.00;;;35.90
56286;BMP180;42191;47.562;9.686;2022-08-05T12:26:53;96814.00;;;35.90
56286;BMP180;42191;47.562;9.686;2022-08-05T12:29:24;96817.00;;;35.90
56286;BMP180;42191;47.562;9.686;2022-08-05T12:31:52;96814.00;;;36.00
56286;BMP180;42191;47.562;9.686;2022-08-05T12:34:23;96806.00;;;36.00
56286;BMP180;42191;47.562;9.686;2022-08-05T12:37:00;96806.00;;;36.00
56286;BMP180;42191;47.562;9.686;2022-08-05T12:39:32;96809.00;;;36.00
56286;BMP180;42191;47.562;9.686;2022-08-05T12:41:59;96808.00;;;36.00
56286;BMP180;42191;47.562;9.686;2022-08-05T12:44:25;96797.00;;;36.00
56286;BMP180;42191;47.562;9.686;2022-08-05T12:46:53;96792.00;;;36.10
56286;BMP180;42191;47.562;9.686;2022-08-05T12:49:20;96793.00;;;36.10
56286;BMP180;42191;47.562;9.686;2022-08-05T12:51:55;96789.00;;;36.20
56286;BMP180;42191;47.562;9.686;2022-08-05T12:54:27;96794.00;;;36.30
56286;BMP180;42191;47.562;9.686;2022-08-05T12:56:56;96771.00;;;36.30
56286;BMP180;42191;47.562;9.686;2022-08-05T12:59:32;96779.00;;;36.30
56286;BMP180;42191;47.562;9.686;2022-08-05T13:02:08;96771.00;;;36.30
56286;BMP180;42191;47.562;9.686;2022-08-05T13:04:36;96765.00;;;36.30
56286;BMP180;42191;47.562;9.686;2022-08-05T13:07:05;96768.00;;;36.30
56286;BMP180;42191;47.562;9.686;2022-08-05T13:09:39;96769.00;;;36.30
56286;BMP180;42191;47.562;9.686;2022-08-05T13:12:15;96765.00;;;36.40
56286;BMP180;42191;47.562;9.686;2022-08-05T13:14:49;96764.00;;;36.40
56286;BMP180;42191;47.562;9.686;2022-08-05T13:17:29;96758.00;;;36.50
56286;BMP180;42191;47.562;9.686;2022-08-05T13:22:38;96749.00;;;37.10
56286;BMP180;42191;47.562;9.686;2022-08-05T13:25:09;96750.00;;;37.60
56286;BMP180;42191;47.562;9.686;2022-08-05T13:27:48;96745.00;;;38.20
56286;BMP180;42191;47.562;9.686;2022-08-05T13:30:16;96734.00;;;39.00
56286;BMP180;42191;47.562;9.686;2022-08-05T13:32:43;96742.00;;;39.70
56286;BMP180;42191;47.562;9.686;2022-08-05T13:35:14;96730.00;;;40.40
56286;BMP180;42191;47.562;9.686;2022-08-05T13:37:41;96736.00;;;41.20
56286;BMP180;42191;47.562;9.686;2022-08-05T13:40:08;96729.00;;;41.90
56286;BMP180;42191;47.562;9.686;2022-08-05T13:42:35;96735.00;;;42.50
56286;BMP180;42191;47.562;9.686;2022-08-05T13:45:02;96725.00;;;43.10
56286;BMP180;42191;47.562;9.686;2022-08-05T13:47:28;96732.00;;;43.70
56286;BMP180;42191;47.562;9.686;2022-08-05T13:49:54;96733.00;;;44.30
56286;BMP180;42191;47.562;9.686;2022-08-05T13:52:22;96730.00;;;44.80
56286;BMP180;42191;47.562;9.686;2022-08-05T13:54:51;96728.00;;;45.20
56286;BMP180;42191;47.562;9.686;2022-08-05T13:57:18;96726.00;;;45.50
56286;BMP180;42191;47.562;9.686;2022-08-05T13:59:44;96730.00;;;45.80
56286;BMP180;42191;47.562;9.686;2022-08-05T14:02:12;96735.00;;;46.10
56286;BMP180;42191;47.562;9.686;2022-08-05T14:04:42;96740.00;;;46.40
56286;BMP180;42191;47.562;9.686;2022-08-05T14:07:45;96742.00;;;46.60
56286;BMP180;42191;47.562;9.686;2022-08-05T14:10:14;96742.00;;;46.80
56286;BMP180;42191;47.562;9.686;2022-08-05T14:12:41;96736.00;;;46.80
56286;BMP180;42191;47.562;9.686;2022-08-05T14:15:08;96740.00;;;46.60
56286;BMP180;42191;47.562;9.686;2022-08-05T14:17:34;96734.00;;;46.20
56286;BMP180;42191;47.562;9.686;2022-08-05T14:20:01;96731.00;;;45.90
56286;BMP180;42191;47.562;9.686;2022-08-05T14:22:27;96728.00;;;45.60
56286;BMP180;42191;47.562;9.686;2022-08-05T14:24:53;96728.00;;;45.30
56286;BMP180;42191;47.562;9.686;2022-08-05T14:27:19;96724.00;;;45.00
56286;BMP180;42191;47.562;9.686;2022-08-05T14:29:45;96725.00;;;44.70
56286;BMP180;42191;47.562;9.686;2022-08-05T14:32:11;96721.00;;;44.40
56286;BMP180;42191;47.562;9.686;2022-08-05T14:34:37;96719.00;;;44.20
56286;BMP180;42191;47.562;9.686;2022-08-05T14:37:04;96709.00;;;44.00
56286;BMP180;42191;47.562;9.686;2022-08-05T14:39:31;96715.00;;;43.80
56286;BMP180;42191;47.562;9.686;2022-08-05T14:41:57;96711.00;;;43.60